Time;durP1;ratioP1;P1;durP2;ratioP2;P2;SDS_P1;SDS_P2;PMS_P1;PMS_P2;Temp;Humidity;BMP_temperature;BMP_pressure;BME280_temperature;BME280_humidity;BME280_pressure;Samples;Min_cycle;Max_cycle;Signal;HPM_P1;HPM_P2
2022/06/21 00:00:16;;;;;;;5.93;2.10;;;;;;;13.59;72.74;101436.56;5032338;28;20418;-77
2022/06/21 00:02:43;;;;;;;8.32;2.50;;;;;;;13.51;72.67;101433.97;5034132;28;20127;-76
2022/06/21 00:05:23;;;;;;;4.13;2.65;;;;;;;13.28;73.59;101432.88;5036491;28;20040;-77
2022/06/21 00:07:49;;;;;;;5.60;2.45;;;;;;;13.09;74.19;101434.78;5036716;28;20032;-76
2022/06/21 00:10:18;;;;;;;2.90;2.15;;;;;;;12.98;74.71;101428.06;5037474;28;20458;-75
2022/06/21 00:12:44;;;;;;;5.30;3.05;;;;;;;12.85;75.12;101425.88;5035257;28;20037;-76
2022/06/21 00:15:11;;;;;;;3.65;2.33;;;;;;;12.71;75.66;101425.66;5035322;28;20036;-76
2022/06/21 00:17:47;;;;;;;7.47;2.83;;;;;;;12.67;75.79;101427.75;5039084;28;20037;-76
2022/06/21 00:20:18;;;;;;;7.10;2.45;;;;;;;12.65;75.77;101433.09;5021813;28;20125;-75
2022/06/21 00:22:44;;;;;;;4.10;2.55;;;;;;;12.73;75.90;101428.91;5035775;28;20471;-76
2022/06/21 00:25:20;;;;;;;6.43;2.60;;;;;;;12.78;75.70;101439.69;5031195;28;20033;-75
2022/06/21 00:27:46;;;;;;;5.75;2.90;;;;;;;12.83;75.50;101434.84;5031337;28;20060;-75
2022/06/21 00:30:12;;;;;;;6.18;2.67;;;;;;;12.86;75.43;101439.72;5032784;28;20481;-75
2022/06/21 00:32:38;;;;;;;7.90;2.78;;;;;;;12.87;75.39;101441.34;5034210;28;20503;-76
2022/06/21 00:35:09;;;;;;;8.35;2.88;;;;;;;12.90;75.04;101440.22;5036233;28;20029;-76
2022/06/21 00:37:34;;;;;;;6.13;2.95;;;;;;;12.90;75.01;101435.00;5024421;28;20042;-76
2022/06/21 00:40:00;;;;;;;5.50;2.70;;;;;;;12.88;75.07;101440.38;5040858;28;20714;-75
2022/06/21 00:42:30;;;;;;;4.43;2.83;;;;;;;12.88;75.05;101442.16;5044530;28;20025;-75
2022/06/21 00:45:06;;;;;;;5.50;3.38;;;;;;;12.85;75.02;101428.50;5039873;28;20501;-76
2022/06/21 00:47:48;;;;;;;4.90;2.75;;;;;;;12.82;75.17;101434.00;5044507;28;20135;-76
2022/06/21 00:50:25;;;;;;;6.65;2.67;;;;;;;12.81;74.79;101431.56;5042964;28;20448;-76
2022/06/21 00:53:20;;;;;;;4.20;2.80;;;;;;;12.79;74.58;101436.94;5041891;28;20033;-75
2022/06/21 00:56:08;;;;;;;3.67;2.83;;;;;;;12.78;74.55;101442.28;5026354;28;20464;-75
2022/06/21 00:58:33;;;;;;;7.18;3.05;;;;;;;12.76;74.44;101439.81;5043636;28;20140;-77
2022/06/21 01:01:15;;;;;;;3.35;2.50;;;;;;;12.74;74.58;101435.75;5039197;28;20040;-76
2022/06/21 01:03:46;;;;;;;6.60;2.95;;;;;;;12.64;74.92;101428.88;5041954;28;20033;-76
2022/06/21 01:06:20;;;;;;;3.83;2.45;;;;;;;12.58;75.13;101428.66;5040768;28;20041;-76
2022/06/21 01:08:54;;;;;;;3.78;2.47;;;;;;;12.38;75.75;101421.06;5042813;28;20028;-77
2022/06/21 01:11:24;;;;;;;5.72;3.03;;;;;;;12.16;76.35;101413.75;5041499;28;20069;-75
2022/06/21 01:13:53;;;;;;;4.18;2.67;;;;;;;11.97;77.13;101417.34;5035948;28;20051;-75
2022/06/21 01:16:19;;;;;;;7.55;2.70;;;;;;;11.88;77.69;101409.47;5049147;28;20040;-77
2022/06/21 01:18:46;;;;;;;4.15;2.88;;;;;;;11.86;77.79;101402.78;5041643;28;21430;-75
2022/06/21 01:21:15;;;;;;;5.07;3.10;;;;;;;11.78;78.13;101403.53;5046152;28;20624;-76
2022/06/21 01:23:53;;;;;;;5.45;3.20;;;;;;;11.67;78.48;101396.75;5040238;28;20039;-77
2022/06/21 01:26:36;;;;;;;7.35;3.00;;;;;;;11.63;79.11;101390.22;5039905;28;20401;-76
2022/06/21 01:29:05;;;;;;;6.85;3.80;;;;;;;11.61;79.40;101389.56;5033464;28;20620;-77
2022/06/21 01:31:32;;;;;;;6.15;3.90;;;;;;;11.60;79.46;101387.94;5042691;28;20025;-76
2022/06/21 01:33:58;;;;;;;8.52;4.43;;;;;;;11.55;79.90;101390.16;5042479;28;20036;-77
2022/06/21 01:36:32;;;;;;;7.35;4.10;;;;;;;11.55;79.99;101386.75;5040801;28;20167;-75
2022/06/21 01:39:01;;;;;;;7.80;3.70;;;;;;;11.57;80.04;101390.84;5039549;28;20044;-76
2022/06/21 01:41:33;;;;;;;8.68;4.20;;;;;;;11.64;79.70;101397.06;5042587;28;20036;-77
2022/06/21 01:44:03;;;;;;;7.43;4.25;;;;;;;11.68;79.54;101400.19;5040028;28;20481;-77
2022/06/21 01:46:31;;;;;;;7.22;4.32;;;;;;;11.73;79.47;101404.94;5041088;28;20036;-77
2022/06/21 01:49:04;;;;;;;5.80;3.90;;;;;;;11.77;79.16;101401.06;5055424;28;20036;-76
2022/06/21 01:51:48;;;;;;;6.68;3.90;;;;;;;11.82;79.03;101393.66;5039588;28;20428;-77
2022/06/21 01:54:17;;;;;;;8.13;4.07;;;;;;;11.84;78.98;101391.72;5038872;28;20037;-77
2022/06/21 01:56:44;;;;;;;5.38;3.70;;;;;;;11.85;78.88;101383.78;5041326;28;20033;-76
2022/06/21 01:59:25;;;;;;;6.05;4.30;;;;;;;11.86;79.04;101389.78;5042259;28;20087;-77
2022/06/21 02:02:06;;;;;;;4.10;2.90;;;;;;;11.85;78.90;101396.78;5054562;28;20158;-77
2022/06/21 02:04:36;;;;;;;7.90;3.80;;;;;;;11.83;79.00;101387.50;5040444;28;20063;-75
2022/06/21 02:07:07;;;;;;;6.18;3.67;;;;;;;11.82;79.40;101388.44;5025965;28;20464;-76
2022/06/21 02:09:49;;;;;;;7.10;4.53;;;;;;;11.80;79.17;101387.78;5043005;28;20174;-76
2022/06/21 02:12:15;;;;;;;7.72;3.20;;;;;;;11.77;79.29;101401.91;5055234;28;20059;-75
2022/06/21 02:14:47;;;;;;;5.95;3.88;;;;;;;11.72;80.10;101398.13;5044744;28;20490;-76
2022/06/21 02:17:21;;;;;;;8.07;4.07;;;;;;;11.66;79.92;101389.94;5041703;28;20405;-77
2022/06/21 02:20:18;;;;;;;5.45;3.20;;;;;;;11.60;80.10;101377.56;5044536;28;20033;-76
2022/06/21 02:22:44;;;;;;;6.95;3.78;;;;;;;11.47;80.42;101372.72;5047837;28;20531;-77
2022/06/21 02:25:21;;;;;;;9.05;4.40;;;;;;;11.33;80.58;101380.22;5041637;28;20103;-77
2022/06/21 02:27:49;;;;;;;8.73;3.88;;;;;;;11.18;80.96;101380.69;5045985;28;20040;-76
2022/06/21 02:30:21;;;;;;;8.93;3.65;;;;;;;11.14;80.84;101397.53;5044137;28;20033;-77
2022/06/21 02:32:48;;;;;;;5.65;3.90;;;;;;;11.19;80.83;101391.88;5034575;28;20029;-76
2022/06/21 02:35:20;;;;;;;6.53;4.10;;;;;;;11.25;80.48;101392.13;5043020;28;20033;-76
2022/06/21 02:37:47;;;;;;;5.53;3.35;;;;;;;11.26;80.67;101392.94;5040127;28;20041;-77
2022/06/21 02:40:20;;;;;;;7.45;4.00;;;;;;;11.26;81.05;101393.78;5042490;28;20033;-77
2022/06/21 02:42:46;;;;;;;;;;;;;;;11.29;81.20;101379.69;5043024;28;20537;-77
2022/06/21 02:45:27;;;;;;;7.72;3.90;;;;;;;11.29;81.12;101369.28;5039333;28;19988;-77
2022/06/21 02:47:56;;;;;;;9.18;3.50;;;;;;;11.25;81.66;101375.75;5043231;28;20025;-77
2022/06/21 02:50:40;;;;;;;8.25;4.22;;;;;;;11.23;81.69;101377.69;5042649;28;20033;-77
2022/06/21 02:53:20;;;;;;;6.90;3.63;;;;;;;11.21;81.41;101364.84;5042018;28;20638;-77
2022/06/21 02:55:58;;;;;;;6.93;3.92;;;;;;;11.10;81.70;101365.03;5038390;28;20032;-77
2022/06/21 02:58:27;;;;;;;6.75;3.95;;;;;;;10.93;81.80;101371.81;5037773;28;20044;-77
2022/06/21 03:00:53;;;;;;;7.95;4.85;;;;;;;10.89;82.07;101370.47;5043659;28;20032;-77
2022/06/21 03:03:24;;;;;;;6.78;3.88;;;;;;;10.91;82.14;101371.16;5039955;28;20051;-76
2022/06/21 03:05:56;;;;;;;8.52;3.65;;;;;;;10.95;81.74;101363.91;5040563;28;20025;-76
2022/06/21 03:08:22;;;;;;;7.25;4.00;;;;;;;10.96;81.68;101361.13;5042444;28;20040;-77
2022/06/21 03:10:50;;;;;;;4.95;3.63;;;;;;;10.84;81.53;101357.13;5041581;28;20067;-77
2022/06/21 03:13:38;;;;;;;9.85;4.65;;;;;;;10.62;81.57;101345.31;5038337;28;20093;-77
2022/06/21 03:16:12;;;;;;;8.35;4.40;;;;;;;10.42;81.98;101352.38;5041135;28;20040;-77
2022/06/21 03:18:44;;;;;;;5.75;3.67;;;;;;;10.33;82.46;101343.66;5029676;28;20381;-77
2022/06/21 03:21:13;;;;;;;7.65;4.35;;;;;;;10.39;82.92;101352.66;5059932;28;20025;-77
2022/06/21 03:23:40;;;;;;;8.38;4.13;;;;;;;10.46;82.60;101361.50;5043751;28;20041;-77
2022/06/21 03:26:05;;;;;;;7.18;4.20;;;;;;;10.50;82.27;101365.44;5028047;28;20279;-76
2022/06/21 03:28:37;;;;;;;9.40;4.10;;;;;;;10.53;82.64;101354.81;5043826;28;20729;-77
2022/06/21 03:31:22;;;;;;;9.40;4.63;;;;;;;10.57;82.53;101361.34;5041261;28;20495;-77
2022/06/21 03:34:01;;;;;;;6.03;3.97;;;;;;;10.61;82.20;101361.88;5038874;28;20025;-77
2022/06/21 03:36:26;;;;;;;9.05;3.72;;;;;;;10.64;81.74;101356.38;5032597;28;20167;-77
2022/06/21 03:39:01;;;;;;;9.05;3.97;;;;;;;10.58;82.05;101355.16;5055498;28;21102;-77
2022/06/21 03:41:43;;;;;;;6.53;4.32;;;;;;;10.51;82.24;101364.50;5038609;28;20041;-77
2022/06/21 03:44:23;;;;;;;5.18;4.00;;;;;;;10.46;82.20;101364.09;5038859;28;20124;-76
2022/06/21 03:46:55;;;;;;;8.30;4.10;;;;;;;10.42;82.32;101370.53;5037082;28;20051;-77
2022/06/21 03:49:45;;;;;;;8.57;4.13;;;;;;;10.45;82.31;101370.22;5037264;28;20045;-77
2022/06/21 03:52:41;;;;;;;9.43;4.93;;;;;;;10.49;82.81;101374.16;5039522;28;20040;-77
2022/06/21 03:55:11;;;;;;;12.23;5.43;;;;;;;10.49;83.03;101377.59;5039973;28;20118;-76
2022/06/21 03:57:43;;;;;;;8.00;4.28;;;;;;;10.51;83.70;101380.06;5044891;28;20025;-77
2022/06/21 04:00:12;;;;;;;7.93;5.88;;;;;;;10.54;83.94;101384.13;5050189;28;20481;-76
2022/06/21 04:02:49;;;;;;;7.30;4.40;;;;;;;10.54;84.13;101391.91;5021206;28;20033;-76
2022/06/21 04:05:47;;;;;;;8.82;5.18;;;;;;;10.53;84.88;101375.53;5032305;28;20021;-76
2022/06/21 04:08:22;;;;;;;8.68;4.60;;;;;;;10.52;85.24;101379.09;4998345;28;20041;-76
2022/06/21 04:11:21;;;;;;;9.93;4.70;;;;;;;10.49;85.29;101380.19;5038783;28;20114;-76
2022/06/21 04:13:50;;;;;;;7.70;5.03;;;;;;;10.52;85.38;101377.31;5047253;28;20540;-76
2022/06/21 04:16:25;;;;;;;8.43;4.40;;;;;;;10.56;85.07;101375.25;5039753;28;20044;-76
2022/06/21 04:18:55;;;;;;;8.07;4.82;;;;;;;10.60;85.19;101389.56;5047482;28;20032;-77
2022/06/21 04:21:26;;;;;;;8.88;4.68;;;;;;;10.64;84.98;101387.50;5051923;28;20036;-77
2022/06/21 04:24:09;;;;;;;7.50;4.85;;;;;;;10.65;85.12;101387.38;5034046;28;20037;-76
2022/06/21 04:26:58;;;;;;;7.72;4.68;;;;;;;10.71;85.16;101384.19;5045327;28;20032;-76
2022/06/21 04:29:35;;;;;;;12.23;5.22;;;;;;;10.77;85.36;101376.81;5037842;28;20063;-76
2022/06/21 04:32:14;;;;;;;8.52;4.53;;;;;;;10.81;84.91;101375.56;5039507;28;20079;-77
2022/06/21 04:34:46;;;;;;;18.48;6.38;;;;;;;10.87;85.20;101375.00;5034531;28;20689;-77
2022/06/21 04:37:26;;;;;;;12.77;5.88;;;;;;;10.84;85.60;101372.69;5029810;28;20041;-77
2022/06/21 04:40:04;;;;;;;7.65;5.03;;;;;;;10.89;85.79;101373.88;5036866;28;20586;-76
2022/06/21 04:42:32;;;;;;;8.15;5.00;;;;;;;10.93;85.82;101368.41;5034819;28;20025;-77
2022/06/21 04:45:13;;;;;;;14.35;4.88;;;;;;;10.99;85.80;101358.25;5035886;28;20072;-76
2022/06/21 04:47:51;;;;;;;9.80;5.03;;;;;;;11.07;85.41;101353.16;5039130;28;20233;-77
2022/06/21 04:50:36;;;;;;;9.77;5.05;;;;;;;11.14;85.35;101358.59;5038681;28;20037;-77
2022/06/21 04:53:12;;;;;;;9.05;5.10;;;;;;;11.21;85.75;101351.84;5034950;28;20033;-76
2022/06/21 04:55:50;;;;;;;7.78;4.90;;;;;;;11.28;85.93;101352.06;5035878;28;20029;-77
2022/06/21 04:58:16;;;;;;;10.00;5.32;;;;;;;11.36;85.91;101361.72;5037088;28;20037;-76
2022/06/21 05:00:42;;;;;;;6.13;4.90;;;;;;;11.45;85.98;101359.09;5035392;28;20037;-76
2022/06/21 05:03:50;;;;;;;10.95;5.75;;;;;;;11.55;86.02;101351.22;5033754;28;20470;-77
2022/06/21 05:06:16;;;;;;;10.40;6.05;;;;;;;11.67;86.11;101357.78;5022393;28;20056;-77
2022/06/21 05:08:42;;;;;;;14.20;5.80;;;;;;;11.84;85.45;101352.75;5043210;28;20143;-75
2022/06/21 05:11:11;;;;;;;10.30;5.38;;;;;;;11.92;84.58;101358.00;5036103;28;20041;-76
2022/06/21 05:13:41;;;;;;;12.75;4.95;;;;;;;12.00;84.79;101339.91;5021156;28;20413;-76
2022/06/21 05:16:33;;;;;;;13.80;5.97;;;;;;;12.15;84.20;101337.56;5037926;28;20551;-77
2022/06/21 05:19:08;;;;;;;10.45;5.30;;;;;;;12.31;83.68;101339.44;5021196;28;20159;-77
2022/06/21 05:21:45;;;;;;;13.55;5.45;;;;;;;12.50;83.51;101335.78;5035527;28;20112;-77
2022/06/21 05:24:11;;;;;;;11.63;4.65;;;;;;;12.67;81.94;101341.88;5032438;28;20187;-77
2022/06/21 05:27:03;;;;;;;9.93;5.68;;;;;;;12.91;80.82;101346.38;5039308;28;20112;-76
2022/06/21 05:30:10;;;;;;;9.25;5.13;;;;;;;13.11;79.68;101346.91;5024720;28;20057;-76
2022/06/21 05:33:05;;;;;;;14.52;5.22;;;;;;;13.41;79.24;101335.13;5041272;28;20045;-76
2022/06/21 05:35:36;;;;;;;10.73;5.00;;;;;;;13.61;78.60;101335.59;5037078;28;20071;-76
2022/06/21 05:38:17;;;;;;;8.45;3.95;;;;;;;13.81;78.36;101338.69;5039760;28;20458;-77
2022/06/21 05:40:55;;;;;;;11.45;4.70;;;;;;;14.05;76.84;101331.81;5040061;28;20733;-75
2022/06/21 05:43:30;;;;;;;18.17;5.30;;;;;;;14.23;75.13;101329.00;5037466;28;20525;-76
2022/06/21 05:46:09;;;;;;;12.00;5.57;;;;;;;14.51;74.52;101326.81;5039680;28;20064;-77
2022/06/21 05:48:38;;;;;;;10.55;5.00;;;;;;;14.67;71.73;101330.34;5044187;28;20555;-76
2022/06/21 05:51:11;;;;;;;10.05;4.72;;;;;;;14.85;71.39;101330.94;5035118;28;20664;-76
2022/06/21 05:53:39;;;;;;;17.42;5.55;;;;;;;14.97;71.17;101340.03;5041144;28;20029;-77
2022/06/21 05:56:09;;;;;;;12.00;5.60;;;;;;;15.22;70.33;101331.19;5051680;28;20402;-76
2022/06/21 05:58:43;;;;;;;10.88;4.50;;;;;;;15.53;70.42;101341.59;5038935;28;20075;-77
2022/06/21 06:01:19;;;;;;;12.68;5.32;;;;;;;15.79;69.65;101351.72;5040192;28;20037;-77
2022/06/21 06:03:51;;;;;;;13.18;5.07;;;;;;;16.07;68.65;101366.84;5038043;28;20040;-76
2022/06/21 06:06:19;;;;;;;11.50;5.10;;;;;;;16.27;66.88;101354.03;5036360;28;20033;-77
2022/06/21 06:08:51;;;;;;;14.80;5.35;;;;;;;16.39;64.38;101355.22;5026008;28;20123;-76
2022/06/21 06:11:57;;;;;;;13.52;5.80;;;;;;;16.58;64.61;101366.13;5050046;28;20056;-76
2022/06/21 06:14:13;;;;;;;19.27;6.68;;;;;;;16.78;64.45;101358.50;5040316;28;20112;-77
2022/06/21 06:16:42;;;;;;;16.38;7.45;;;;;;;17.02;64.14;101354.78;5041063;28;20033;-76
2022/06/21 06:19:19;;;;;;;22.83;8.60;;;;;;;17.19;61.69;101353.56;5041467;28;20120;-75
2022/06/21 06:22:05;;;;;;;16.65;7.63;;;;;;;17.05;60.58;101360.47;5040308;28;20036;-76
2022/06/21 06:24:37;;;;;;;14.95;6.88;;;;;;;17.18;61.65;101359.81;5018518;28;20048;-77
2022/06/21 06:27:09;;;;;;;16.90;7.05;;;;;;;17.60;60.07;101360.00;5024957;28;20029;-77
2022/06/21 06:29:43;;;;;;;14.45;6.57;;;;;;;18.08;60.07;101350.50;5040763;28;20028;-77
2022/06/21 06:32:20;;;;;;;10.52;5.63;;;;;;;18.22;58.62;101351.38;5041322;28;20472;-76
2022/06/21 06:34:51;;;;;;;16.95;6.30;;;;;;;18.47;57.51;101358.78;5039650;28;20047;-76
2022/06/21 06:37:36;;;;;;;11.07;5.35;;;;;;;18.66;55.85;101360.66;5037662;28;20713;-76
2022/06/21 06:40:05;;;;;;;9.30;4.43;;;;;;;18.85;54.88;101358.34;5038229;28;20104;-77
2022/06/21 06:42:36;;;;;;;8.68;4.03;;;;;;;19.23;55.43;101363.91;5040167;28;20037;-77
2022/06/21 06:45:24;;;;;;;14.38;4.00;;;;;;;19.15;54.62;101358.03;5036611;28;20158;-76
2022/06/21 06:47:56;;;;;;;7.30;4.28;;;;;;;19.48;54.78;101359.88;5041403;28;20090;-77
2022/06/21 06:50:29;;;;;;;7.47;3.25;;;;;;;19.81;54.14;101349.41;5038536;28;20037;-77
2022/06/21 06:53:06;;;;;;;11.80;5.80;;;;;;;20.08;53.16;101346.72;5042215;28;20037;-76
2022/06/21 06:55:56;;;;;;;6.60;3.45;;;;;;;20.02;51.84;101346.56;5049636;28;20040;-75
2022/06/21 06:58:35;;;;;;;8.57;3.47;;;;;;;20.13;50.91;101349.56;5015326;28;20047;-75
2022/06/21 07:01:13;;;;;;;8.88;3.63;;;;;;;20.18;51.78;101350.56;5033975;28;20033;-77
2022/06/21 07:03:42;;;;;;;8.82;3.88;;;;;;;20.69;49.79;101349.00;5038973;28;20092;-77
2022/06/21 07:06:18;;;;;;;9.90;3.15;;;;;;;20.75;50.83;101340.25;5031732;28;20040;-77
2022/06/21 07:08:50;;;;;;;6.05;3.60;;;;;;;21.23;50.45;101343.41;5028104;28;20029;-76
2022/06/21 07:11:25;;;;;;;6.07;3.05;;;;;;;21.53;49.32;101354.16;5036342;28;20635;-77
2022/06/21 07:13:52;;;;;;;7.28;3.30;;;;;;;21.93;47.62;101344.06;5034842;28;20040;-75
2022/06/21 07:16:22;;;;;;;8.75;3.20;;;;;;;21.97;47.18;101352.38;5035859;28;20086;-76
2022/06/21 07:18:50;;;;;;;5.68;2.20;;;;;;;22.43;45.96;101345.00;5034637;28;20482;-76
2022/06/21 07:21:17;;;;;;;8.57;2.85;;;;;;;22.14;45.12;101337.56;5036420;28;20363;-77
2022/06/21 07:23:44;;;;;;;6.75;3.28;;;;;;;22.21;44.00;101332.22;5037681;28;20116;-76
2022/06/21 07:26:40;;;;;;;3.95;2.17;;;;;;;22.20;44.47;101335.88;5040727;28;20059;-77
2022/06/21 07:29:18;;;;;;;7.40;3.08;;;;;;;22.16;45.89;101339.97;5039330;28;20033;-76
2022/06/21 07:31:48;;;;;;;10.98;3.85;;;;;;;22.46;44.91;101328.69;5039796;28;20033;-77
2022/06/21 07:34:23;;;;;;;7.45;2.28;;;;;;;22.73;43.21;101332.63;5036098;28;20036;-77
2022/06/21 07:37:20;;;;;;;4.70;2.05;;;;;;;23.05;44.26;101324.44;5037909;28;20044;-77
2022/06/21 07:39:55;;;;;;;8.38;2.38;;;;;;;23.02;43.37;101339.94;5026180;28;20052;-77
2022/06/21 07:43:02;;;;;;;5.50;2.30;;;;;;;23.67;43.47;101342.59;5037594;28;20036;-77
2022/06/21 07:45:41;;;;;;;6.00;2.25;;;;;;;22.97;43.16;101331.88;5009116;28;20425;-77
2022/06/21 07:48:23;;;;;;;3.95;2.22;;;;;;;22.70;43.61;101338.34;5047275;28;20705;-77
2022/06/21 07:51:04;;;;;;;4.93;1.80;;;;;;;22.42;42.02;101351.31;5043569;28;20046;-76
2022/06/21 07:53:35;;;;;;;10.40;2.40;;;;;;;22.12;43.27;101355.47;5042885;28;20043;-77
2022/06/21 07:56:31;;;;;;;5.57;2.70;;;;;;;22.42;43.03;101346.03;5043345;28;20036;-77
2022/06/21 07:59:03;;;;;;;5.72;2.50;;;;;;;22.78;40.86;101347.78;5040327;28;20106;-78
2022/06/21 08:07:20;;;;;;;5.22;1.58;;;;;;;23.66;39.16;101322.47;5039711;28;20031;-77
2022/06/21 08:09:55;;;;;;;5.55;1.80;;;;;;;23.61;38.08;101329.47;5025371;28;20053;-78
2022/06/21 08:12:21;;;;;;;5.80;2.38;;;;;;;23.94;39.38;101326.28;5039340;28;20028;-78
2022/06/21 08:14:47;;;;;;;4.15;1.90;;;;;;;24.01;38.56;101316.34;5040547;28;20128;-77
2022/06/21 08:17:28;;;;;;;4.70;2.13;;;;;;;24.30;38.01;101319.06;5043683;28;20037;-79
2022/06/21 08:20:16;;;;;;;4.03;2.03;;;;;;;24.62;38.31;101319.44;5041677;28;20048;-78
2022/06/21 08:22:45;;;;;;;2.85;1.70;;;;;;;24.55;38.99;101305.50;5058107;28;20079;-78
2022/06/21 08:25:30;;;;;;;5.78;2.35;;;;;;;24.64;38.59;101306.75;5041913;28;20067;-77
2022/06/21 08:28:19;;;;;;;5.47;2.17;;;;;;;24.70;38.13;101301.53;5043064;28;20088;-78
2022/06/21 08:30:50;;;;;;;4.78;2.03;;;;;;;24.54;37.87;101308.41;5037515;28;20041;-79
2022/06/21 08:33:27;;;;;;;8.15;1.88;;;;;;;24.28;38.47;101305.25;5043031;28;20037;-77
2022/06/21 08:35:59;;;;;;;3.00;1.70;;;;;;;24.57;38.75;101297.34;5032994;28;20033;-79
2022/06/21 08:38:37;;;;;;;5.22;1.90;;;;;;;24.16;38.83;101293.88;5039906;28;20033;-79
2022/06/21 08:44:24;;;;;;;3.88;2.17;;;;;;;23.84;38.37;101273.88;5040470;28;20592;-78
2022/06/21 08:47:23;;;;;;;4.75;2.15;;;;;;;24.01;39.47;101279.28;5042208;28;20033;-78
2022/06/21 08:50:10;;;;;;;4.90;1.70;;;;;;;24.48;38.95;101265.84;5044178;28;20037;-78
2022/06/21 08:52:59;;;;;;;8.52;2.40;;;;;;;24.35;38.54;101254.75;5039530;28;20847;-79
2022/06/21 08:55:44;;;;;;;5.47;1.65;;;;;;;23.58;39.40;101250.53;5036500;28;20284;-78
2022/06/21 08:58:15;;;;;;;4.53;2.08;;;;;;;23.22;40.41;101253.19;5038826;28;20022;-77
2022/06/21 09:01:14;;;;;;;4.40;1.83;;;;;;;23.03;40.48;101249.00;5043732;28;20424;-78
2022/06/21 09:03:52;;;;;;;5.90;2.15;;;;;;;23.02;39.59;101250.03;5025591;28;20052;-78
2022/06/21 09:06:32;;;;;;;6.22;2.00;;;;;;;22.74;42.44;101240.91;5045428;28;20524;-75
2022/06/21 09:09:25;;;;;;;8.07;2.80;;;;;;;22.66;41.04;101230.66;5044524;28;20029;-78
2022/06/21 09:12:25;;;;;;;6.47;2.45;;;;;;;22.74;42.20;101228.50;5048349;28;20139;-78
2022/06/21 09:15:17;;;;;;;5.63;2.60;;;;;;;22.85;41.80;101229.56;5045272;28;20086;-77
2022/06/21 09:17:51;;;;;;;6.22;2.08;;;;;;;23.02;41.35;101231.50;5053730;28;20036;-76
2022/06/21 09:20:31;;;;;;;4.65;1.30;;;;;;;23.29;41.05;101224.00;5044112;28;20033;-78
2022/06/21 09:23:06;;;;;;;4.10;1.63;;;;;;;23.34;39.15;101213.53;5043864;28;20033;-78
2022/06/21 09:25:48;;;;;;;3.30;1.73;;;;;;;23.11;40.85;101199.28;5040086;28;20060;-77
2022/06/21 09:28:39;;;;;;;3.40;2.05;;;;;;;23.27;40.27;101197.75;5044643;28;20495;-78
2022/06/21 09:31:35;;;;;;;4.10;1.90;;;;;;;23.44;38.94;101184.63;5041569;28;20127;-78
2022/06/21 09:34:21;;;;;;;5.40;2.13;;;;;;;23.92;39.25;101184.53;5039077;28;20045;-77
2022/06/21 09:37:07;;;;;;;6.43;2.22;;;;;;;23.32;39.30;101186.50;5044955;28;20030;-78
2022/06/21 09:39:42;;;;;;;11.95;2.28;;;;;;;23.04;40.68;101184.56;5045512;28;20048;-78
2022/06/21 09:42:34;;;;;;;5.20;2.03;;;;;;;23.22;41.71;101189.72;5041236;28;20163;-77
2022/06/21 09:45:22;;;;;;;4.63;2.22;;;;;;;23.76;40.94;101181.56;5040592;28;20540;-78
2022/06/21 09:48:02;;;;;;;5.20;3.05;;;;;;;23.77;39.87;101183.19;5049480;28;20037;-78
2022/06/21 09:50:53;;;;;;;6.07;2.30;;;;;;;23.52;38.93;101186.13;5028077;28;20517;-78
2022/06/21 09:53:29;;;;;;;7.82;2.05;;;;;;;23.25;39.21;101201.69;5041479;28;20057;-76
2022/06/21 09:56:29;;;;;;;3.97;2.55;;;;;;;23.49;38.96;101195.34;5040560;28;20068;-77
2022/06/21 09:58:55;;;;;;;3.55;1.58;;;;;;;22.83;40.81;101202.56;5051272;28;20489;-77
2022/06/21 10:01:34;;;;;;;7.07;2.67;;;;;;;22.61;41.87;101210.19;5039381;28;20125;-77
2022/06/21 10:04:12;;;;;;;5.68;1.90;;;;;;;22.84;40.87;101201.50;5044880;28;20499;-78
2022/06/21 10:06:46;;;;;;;4.05;1.70;;;;;;;23.38;39.92;101201.44;5042181;28;20473;-77
2022/06/21 10:09:33;;;;;;;4.63;1.77;;;;;;;23.95;38.34;101197.31;5053370;28;20347;-78
2022/06/21 10:12:21;;;;;;;5.10;1.65;;;;;;;24.04;37.42;101193.25;5049994;28;20044;-77
2022/06/21 10:15:23;;;;;;;5.95;1.67;;;;;;;23.90;39.00;101190.91;5043601;28;20032;-78
2022/06/21 10:18:07;;;;;;;5.47;2.08;;;;;;;23.93;36.88;101186.16;5039427;28;20032;-77
2022/06/21 10:20:48;;;;;;;5.03;1.67;;;;;;;23.79;37.17;101182.97;5023813;28;20123;-78
2022/06/21 10:23:22;;;;;;;3.35;1.70;;;;;;;23.10;40.03;101194.22;5048761;28;20652;-78
2022/06/21 10:26:23;;;;;;;5.35;1.58;;;;;;;22.97;39.46;101194.41;5042737;28;20025;-78
2022/06/21 10:29:17;;;;;;;4.57;1.60;;;;;;;23.26;38.94;101193.53;5025611;28;20157;-78
2022/06/21 10:31:52;;;;;;;4.65;1.90;;;;;;;22.68;39.51;101197.69;5040650;28;20493;-77
2022/06/21 10:34:29;;;;;;;4.40;1.83;;;;;;;22.54;39.82;101197.06;5039248;28;20052;-78
2022/06/21 10:37:14;;;;;;;6.18;2.20;;;;;;;22.40;40.61;101200.97;5040848;28;20033;-78
2022/06/21 10:40:02;;;;;;;5.40;1.83;;;;;;;22.64;40.87;101207.13;5031846;28;20132;-78
2022/06/21 10:42:46;;;;;;;9.68;2.45;;;;;;;23.12;39.01;101203.50;5043479;28;20072;-77
2022/06/21 10:45:21;;;;;;;9.57;1.80;;;;;;;23.54;40.09;101191.97;5040559;28;20036;-77
2022/06/21 10:48:05;;;;;;;6.03;2.08;;;;;;;23.60;40.13;101182.31;5042588;28;20029;-78
2022/06/21 10:50:39;;;;;;;6.85;1.73;;;;;;;23.24;38.66;101184.97;5034876;28;20278;-78
2022/06/21 10:53:25;;;;;;;8.43;2.03;;;;;;;23.19;40.46;101181.44;5038154;28;20425;-77
2022/06/21 10:58:59;;;;;;;3.42;1.60;;;;;;;23.28;39.78;101172.09;5037281;28;20048;-77
2022/06/21 11:02:10;;;;;;;5.03;1.83;;;;;;;23.08;41.02;101183.84;5036489;28;20034;-78
2022/06/21 11:04:43;;;;;;;5.10;1.88;;;;;;;23.16;41.25;101173.97;5012232;28;20654;-78
2022/06/21 11:07:44;;;;;;;4.85;2.17;;;;;;;23.25;39.42;101199.03;5041693;28;20675;-78
2022/06/21 11:10:19;;;;;;;4.55;1.58;;;;;;;23.28;39.54;101203.84;5016858;28;20352;-78
2022/06/21 11:13:25;;;;;;;3.10;1.80;;;;;;;23.21;40.89;101211.91;5039096;28;20116;-77
2022/06/21 11:16:17;;;;;;;7.13;2.22;;;;;;;22.84;39.02;101211.28;5039069;28;20246;-78
2022/06/21 11:18:47;;;;;;;6.63;1.88;;;;;;;22.71;39.84;101201.72;5037045;28;20041;-77
2022/06/21 11:21:26;;;;;;;5.75;2.10;;;;;;;22.84;40.92;101185.63;5040541;28;20847;-77
2022/06/21 11:24:07;;;;;;;6.25;3.05;;;;;;;22.92;40.83;101174.75;5050843;28;20430;-78
2022/06/21 11:26:51;;;;;;;8.35;2.10;;;;;;;23.22;39.64;101173.84;5037063;28;20033;-77
2022/06/21 11:29:16;;;;;;;6.70;1.88;;;;;;;23.63;40.15;101166.75;5036188;28;20037;-78
2022/06/21 11:31:54;;;;;;;4.22;1.92;;;;;;;24.11;39.61;101175.41;5037882;28;20574;-77
2022/06/21 11:34:38;;;;;;;6.45;2.33;;;;;;;23.76;37.89;101170.19;5041460;28;20055;-77
2022/06/21 11:37:24;;;;;;;3.58;2.10;;;;;;;24.01;40.86;101169.91;5055201;28;20055;-78
2022/06/21 11:40:17;;;;;;;5.47;2.20;;;;;;;23.91;38.38;101170.50;5024541;28;20992;-77
2022/06/21 11:42:51;;;;;;;5.82;2.22;;;;;;;23.80;40.00;101169.50;5039518;28;20036;-77
2022/06/21 11:45:19;;;;;;;7.88;2.50;;;;;;;23.87;39.49;101170.19;5042747;28;20301;-78
2022/06/21 11:48:21;;;;;;;5.18;2.75;;;;;;;23.77;38.09;101169.13;5039848;28;20029;-77
2022/06/21 11:51:19;;;;;;;4.95;2.28;;;;;;;23.66;40.38;101168.94;5036370;28;20041;-77
2022/06/21 11:53:55;;;;;;;9.45;3.05;;;;;;;23.51;39.24;101164.16;5037127;28;20099;-76
2022/06/21 11:56:56;;;;;;;4.88;1.80;;;;;;;23.55;39.87;101159.19;5036587;28;20094;-77
2022/06/21 11:59:45;;;;;;;6.15;2.00;;;;;;;23.39;40.79;101160.69;5039803;28;20633;-77
2022/06/21 12:02:21;;;;;;;8.20;2.70;;;;;;;23.58;40.16;101158.72;5038692;28;20090;-77
2022/06/21 12:05:20;;;;;;;7.25;2.30;;;;;;;23.69;39.61;101165.81;5036929;28;20068;-77
2022/06/21 12:08:14;;;;;;;8.93;3.58;;;;;;;24.04;37.44;101169.44;5015635;28;20068;-77
2022/06/21 12:10:52;;;;;;;5.15;2.30;;;;;;;24.33;38.94;101164.91;5018993;28;20033;-77
2022/06/21 12:13:41;;;;;;;6.40;2.88;;;;;;;24.63;38.43;101154.03;5037491;28;20063;-78
2022/06/21 12:16:24;;;;;;;5.18;1.70;;;;;;;24.65;38.15;101146.63;5038532;28;20452;-78
2022/06/21 12:18:59;;;;;;;4.85;1.90;;;;;;;24.91;38.29;101148.88;5039209;28;20127;-78
2022/06/21 12:21:29;;;;;;;9.45;2.40;;;;;;;24.62;36.87;101128.56;5036046;28;20077;-78
2022/06/21 12:23:58;;;;;;;6.10;1.98;;;;;;;24.84;37.74;101125.16;5041937;28;20272;-78